Terminal Aerodrome Forecast
Issued by NWS Louisville, KY

Home | Current Version | Previous Version | Text Only | Print | Product List | Glossary On
Versions: 1 2 3 4 5 6 7 8 9 10 11 12 13 14 15 16 17
114
FTUS43 KLMK 090520
TAFBWG
TAF
KBWG 090520Z 0906/1006 33005KT 4SM -SHSN FEW012 BKN025
      TEMPO 0906/0910 1SM -SHSN BKN012
     FM091500 28008KT P6SM VCSH OVC024
     FM092000 29008G18KT 5SM -SHSN OVC025=

USA.gov is the U.S. government's official web portal to all federal, state and local government web resources and services.